Dino John — WCX6387 — position and weather

sailwx.info

Track history (hours):
 
Tides and Currents Weather Stations Pressure Air Temp Water Temp Dewpoint Dewpoint Depression Visibility Wind Speed Wind Dir Waves Ship Positions

Dino John

Owner: VINTON CROSBY INC, GOLDEN MEADOW, LA. More information available from US FCC via Universal Licensing System and Coast Guard Vessel Documentation Center.

Last reported at 2018-Jun-25 05:18 UTC. Time now 2018-Jun-25 15:47 UTC.
Position N 29°44' W 095°10'.

Length 16 m; draft 3.5 m.

Type: Towing. MMSI: 367028880.

Date/timePositionNaut miles runAvg speedWind from/ knotsBaromVisibWave heightAir tempDewpointWater temp
2018-Jun-25 05:18N 29°44' W 095°10'2 3.8
2018-Jun-25 04:39N 29°44' W 095°07'1 5.4
2018-Jun-25 04:30N 29°45' W 095°06'2 2.8
2018-Jun-25 03:47N 29°47' W 095°05'1 1.8
2018-Jun-25 03:21N 29°46' W 095°05'2 0.2
2018-Jun-24 14:38N 29°44' W 095°07'1 4.9
2018-Jun-24 14:21N 29°45' W 095°06'2 1.6
2018-Jun-24 13:24N 29°47' W 095°05'5 0.2
2018-Jun-23 07:46N 29°44' W 095°09'0 0.0
2018-Jun-23 07:29N 29°44' W 095°09'0 0.0
2018-Jun-23 06:54N 29°44' W 095°09'0 0.0
2018-Jun-23 06:29N 29°44' W 095°09'0 0.0
2018-Jun-23 05:58N 29°44' W 095°09'0 0.1
2018-Jun-23 05:25N 29°44' W 095°09'1 2.3
2018-Jun-23 05:00N 29°44' W 095°08'2 4.4
2018-Jun-23 04:30N 29°45' W 095°06'2 4.4
2018-Jun-23 04:00N 29°47' W 095°05'0 0.0
2018-Jun-23 03:30N 29°47' W 095°05'1 1.5
2018-Jun-23 03:00N 29°46' W 095°05'2 4.5
2018-Jun-23 02:30N 29°44' W 095°07'2 0.2
2018-Jun-22 13:24N 29°44' W 095°09'0 0.0
2018-Jun-22 12:50N 29°44' W 095°09'0 0.4
2018-Jun-22 11:52N 29°44' W 095°09'2 4.4
2018-Jun-22 11:27N 29°44' W 095°07'2 1.0
2018-Jun-22 09:28N 29°46' W 095°05'3 5.0
2018-Jun-22 08:53N 29°44' W 095°08'1 1.3
2018-Jun-22 07:58N 29°44' W 095°09'0 0.0
2018-Jun-22 07:16N 29°44' W 095°09'0 0.0
2018-Jun-22 07:00N 29°44' W 095°09'0 0.1
2018-Jun-22 06:04N 29°44' W 095°09'0 1.8
2018-Jun-22 05:59N 29°44' W 095°10'0 0.3
2018-Jun-22 05:30N 29°44' W 095°09'0 0.0
2018-Jun-22 04:57N 29°44' W 095°09'0 0.0
2018-Jun-22 04:30N 29°44' W 095°09'0 0.0
2018-Jun-22 03:41N 29°44' W 095°09'0 0.0
2018-Jun-22 03:17N 29°44' W 095°09'0 0.0
2018-Jun-21 23:30N 29°44' W 095°09'0 0.0
2018-Jun-21 22:41N 29°44' W 095°09'0 0.0
2018-Jun-21 22:22N 29°44' W 095°09'3 0.2
2018-Jun-21 07:48N 29°45' W 095°06'3 7.3
2018-Jun-21 07:23N 29°44' W 095°09'1 0.1
2018-Jun-20 09:29N 29°44' W 095°08'  
2018-Jun-17 23:43N 29°42' W 095°01'1 6.9
2018-Jun-17 23:30N 29°42' W 094°59'3 6.7
2018-Jun-17 23:00N 29°38' W 094°58'4 7.1
2018-Jun-17 22:30N 29°35' W 094°56'7 7.3
2018-Jun-17 21:29N 29°29' W 094°51'4 7.2
2018-Jun-17 20:59N 29°26' W 094°50'3 6.9
2018-Jun-17 20:30N 29°23' W 094°48'23 6.3
2018-Jun-17 16:46N 29°34' W 094°25'2 5.9
2018-Jun-17 16:29N 29°36' W 094°24'3 6.6
2018-Jun-17 16:00N 29°37' W 094°21'4 7.3
2018-Jun-17 15:30N 29°39' W 094°17'4 7.4
2018-Jun-17 15:01N 29°40' W 094°13'4 7.6
2018-Jun-17 14:30N 29°42' W 094°09'4 7.9
2018-Jun-17 14:00N 29°44' W 094°06'4 7.4
2018-Jun-17 13:30N 29°46' W 094°02'4 7.8
2018-Jun-17 13:00N 29°49' W 093°59'3 6.3
2018-Jun-17 12:31N 29°51' W 093°57'3 6.5
2018-Jun-17 12:01N 29°54' W 093°54'3 6.7
2018-Jun-17 11:30N 29°57' W 093°52'3 6.4
2018-Jun-17 11:00N 29°59' W 093°49'4 7.4
2018-Jun-17 10:31N 30°01' W 093°46'4 7.1
2018-Jun-17 10:01N 30°03' W 093°43'4 7.4
2018-Jun-17 09:30N 30°04' W 093°38'4 7.3
2018-Jun-17 09:00N 30°04' W 093°34'3 6.9
2018-Jun-17 08:30N 30°04' W 093°30'3 5.1
2018-Jun-17 08:00N 30°04' W 093°27'2 4.4
2018-Jun-17 07:30N 30°04' W 093°25'3 5.6
2018-Jun-17 07:00N 30°04' W 093°21'3 5.4
2018-Jun-17 06:30N 30°06' W 093°19'1 3.0
2018-Jun-17 06:00N 30°05' W 093°18'1 1.8
2018-Jun-17 05:30N 30°05' W 093°17'2 4.4
2018-Jun-17 05:00N 30°03' W 093°16'2 5.0
2018-Jun-17 04:30N 30°01' W 093°14'3 5.3
2018-Jun-17 04:01N 29°59' W 093°12'3 5.9
2018-Jun-17 03:30N 29°57' W 093°10'3 5.9
2018-Jun-17 03:00N 29°56' W 093°07'3 6.1
2018-Jun-17 02:30N 29°56' W 093°03'33 6.2
2018-Jun-16 21:08N 29°53' W 092°25'2 6.2
2018-Jun-16 20:50N 29°52' W 092°23'2 5.9
2018-Jun-16 20:30N 29°51' W 092°21'3 6.3
2018-Jun-16 20:00N 29°50' W 092°18'3 6.0
2018-Jun-16 19:30N 29°48' W 092°15'2 3.3
2018-Jun-16 18:59N 29°47' W 092°13'1 1.9
2018-Jun-16 18:30N 29°47' W 092°12'2 3.2
2018-Jun-16 18:01N 29°47' W 092°10'3 5.5
2018-Jun-16 17:30N 29°47' W 092°07'3 6.1
2018-Jun-16 17:00N 29°48' W 092°04'3 6.3
2018-Jun-16 16:30N 29°50' W 092°01'58 5.2
2018-Jun-16 05:13N 29°34' W 090°56'2 6.7
2018-Jun-16 04:53N 29°33' W 090°54'2 6.3
2018-Jun-16 04:30N 29°32' W 090°51'4 6.7
2018-Jun-16 03:59N 29°32' W 090°47'3 5.6
2018-Jun-16 03:30N 29°34' W 090°45'2 3.7
2018-Jun-16 03:00N 29°35' W 090°43'0 0.0
2018-Jun-16 02:30N 29°35' W 090°43'0 0.0
2018-Jun-16 02:00N 29°35' W 090°43'2 4.7
2018-Jun-16 01:30N 29°33' W 090°45'3 6.1
2018-Jun-16 01:00N 29°32' W 090°48'1 2.0
2018-Jun-16 00:30N 29°32' W 090°47'3 5.1
2018-Jun-16 00:00N 29°34' W 090°45'2 4.3
2018-Jun-15 23:30N 29°33' W 090°42'1 1.3
2018-Jun-15 23:00N 29°33' W 090°42'0 0.0
2018-Jun-15 22:30N 29°33' W 090°42'0 0.0
2018-Jun-15 22:00N 29°33' W 090°42'0 0.0
2018-Jun-15 21:30N 29°33' W 090°42'0 0.0
2018-Jun-15 21:00N 29°33' W 090°42'0 0.0
2018-Jun-15 20:30N 29°33' W 090°42'0 0.0
2018-Jun-15 19:55N 29°33' W 090°42'0 0.0
2018-Jun-15 19:30N 29°33' W 090°42'0 0.0
2018-Jun-15 19:00N 29°33' W 090°42'0 0.0
2018-Jun-15 18:30N 29°33' W 090°42'0 0.0
2018-Jun-15 18:00N 29°33' W 090°42'0 0.0
2018-Jun-15 17:30N 29°33' W 090°42'0 0.0
2018-Jun-15 17:00N 29°33' W 090°42'0 0.0
2018-Jun-15 16:30N 29°33' W 090°42'0 0.0
2018-Jun-15 16:00N 29°33' W 090°42'0 0.0
2018-Jun-15 15:30N 29°33' W 090°42'0 0.0
2018-Jun-15 15:00N 29°33' W 090°42'0 0.0
2018-Jun-15 14:30N 29°33' W 090°42'0 0.0
2018-Jun-15 14:00N 29°33' W 090°42'0 0.0
2018-Jun-15 13:30N 29°33' W 090°42'0 0.0
2018-Jun-15 13:00N 29°33' W 090°42'0 0.0
2018-Jun-15 12:30N 29°33' W 090°42'  
Track history (hours):
 
Tides and Currents Weather Stations Pressure Air Temp Water Temp Dewpoint Dewpoint Depression Visibility Wind Speed Wind Dir Waves Ship Positions

Dino John

Owner: VINTON CROSBY INC, GOLDEN MEADOW, LA. More information available from US FCC via Universal Licensing System and Coast Guard Vessel Documentation Center.

Last reported at 2018-Jun-25 05:18 UTC. Time now 2018-Jun-25 15:47 UTC.
Position N 29°44' W 095°10'.

Length 16 m; draft 3.5 m.

Type: Towing. MMSI: 367028880.

Date/timePositionNaut miles runAvg speedWind from/ knotsBaromVisibWave heightAir tempDewpointWater temp
2018-Jun-25 05:18N 29°44' W 095°10'2 3.8
2018-Jun-25 04:39N 29°44' W 095°07'1 5.4
2018-Jun-25 04:30N 29°45' W 095°06'2 2.8
2018-Jun-25 03:47N 29°47' W 095°05'1 1.8
2018-Jun-25 03:21N 29°46' W 095°05'2 0.2
2018-Jun-24 14:38N 29°44' W 095°07'1 4.9
2018-Jun-24 14:21N 29°45' W 095°06'2 1.6
2018-Jun-24 13:24N 29°47' W 095°05'5 0.2
2018-Jun-23 07:46N 29°44' W 095°09'0 0.0
2018-Jun-23 07:29N 29°44' W 095°09'0 0.0
2018-Jun-23 06:54N 29°44' W 095°09'0 0.0
2018-Jun-23 06:29N 29°44' W 095°09'0 0.0
2018-Jun-23 05:58N 29°44' W 095°09'0 0.1
2018-Jun-23 05:25N 29°44' W 095°09'1 2.3
2018-Jun-23 05:00N 29°44' W 095°08'2 4.4
2018-Jun-23 04:30N 29°45' W 095°06'2 4.4
2018-Jun-23 04:00N 29°47' W 095°05'0 0.0
2018-Jun-23 03:30N 29°47' W 095°05'1 1.5
2018-Jun-23 03:00N 29°46' W 095°05'2 4.5
2018-Jun-23 02:30N 29°44' W 095°07'2 0.2
2018-Jun-22 13:24N 29°44' W 095°09'0 0.0
2018-Jun-22 12:50N 29°44' W 095°09'0 0.4
2018-Jun-22 11:52N 29°44' W 095°09'2 4.4
2018-Jun-22 11:27N 29°44' W 095°07'2 1.0
2018-Jun-22 09:28N 29°46' W 095°05'3 5.0
2018-Jun-22 08:53N 29°44' W 095°08'1 1.3
2018-Jun-22 07:58N 29°44' W 095°09'0 0.0
2018-Jun-22 07:16N 29°44' W 095°09'0 0.0
2018-Jun-22 07:00N 29°44' W 095°09'0 0.1
2018-Jun-22 06:04N 29°44' W 095°09'0 1.8
2018-Jun-22 05:59N 29°44' W 095°10'0 0.3
2018-Jun-22 05:30N 29°44' W 095°09'0 0.0
2018-Jun-22 04:57N 29°44' W 095°09'0 0.0
2018-Jun-22 04:30N 29°44' W 095°09'0 0.0
2018-Jun-22 03:41N 29°44' W 095°09'0 0.0
2018-Jun-22 03:17N 29°44' W 095°09'0 0.0
2018-Jun-21 23:30N 29°44' W 095°09'0 0.0
2018-Jun-21 22:41N 29°44' W 095°09'0 0.0
2018-Jun-21 22:22N 29°44' W 095°09'3 0.2
2018-Jun-21 07:48N 29°45' W 095°06'3 7.3
2018-Jun-21 07:23N 29°44' W 095°09'1 0.1
2018-Jun-20 09:29N 29°44' W 095°08'  
2018-Jun-17 23:43N 29°42' W 095°01'1 6.9
2018-Jun-17 23:30N 29°42' W 094°59'3 6.7
2018-Jun-17 23:00N 29°38' W 094°58'4 7.1
2018-Jun-17 22:30N 29°35' W 094°56'7 7.3
2018-Jun-17 21:29N 29°29' W 094°51'4 7.2
2018-Jun-17 20:59N 29°26' W 094°50'3 6.9
2018-Jun-17 20:30N 29°23' W 094°48'23 6.3
2018-Jun-17 16:46N 29°34' W 094°25'2 5.9
2018-Jun-17 16:29N 29°36' W 094°24'3 6.6
2018-Jun-17 16:00N 29°37' W 094°21'4 7.3
2018-Jun-17 15:30N 29°39' W 094°17'4 7.4
2018-Jun-17 15:01N 29°40' W 094°13'4 7.6
2018-Jun-17 14:30N 29°42' W 094°09'4 7.9
2018-Jun-17 14:00N 29°44' W 094°06'4 7.4
2018-Jun-17 13:30N 29°46' W 094°02'4 7.8
2018-Jun-17 13:00N 29°49' W 093°59'3 6.3
2018-Jun-17 12:31N 29°51' W 093°57'3 6.5
2018-Jun-17 12:01N 29°54' W 093°54'3 6.7
2018-Jun-17 11:30N 29°57' W 093°52'3 6.4
2018-Jun-17 11:00N 29°59' W 093°49'4 7.4
2018-Jun-17 10:31N 30°01' W 093°46'4 7.1
2018-Jun-17 10:01N 30°03' W 093°43'4 7.4
2018-Jun-17 09:30N 30°04' W 093°38'4 7.3
2018-Jun-17 09:00N 30°04' W 093°34'3 6.9
2018-Jun-17 08:30N 30°04' W 093°30'3 5.1
2018-Jun-17 08:00N 30°04' W 093°27'2 4.4
2018-Jun-17 07:30N 30°04' W 093°25'3 5.6
2018-Jun-17 07:00N 30°04' W 093°21'3 5.4
2018-Jun-17 06:30N 30°06' W 093°19'1 3.0
2018-Jun-17 06:00N 30°05' W 093°18'1 1.8
2018-Jun-17 05:30N 30°05' W 093°17'2 4.4
2018-Jun-17 05:00N 30°03' W 093°16'2 5.0
2018-Jun-17 04:30N 30°01' W 093°14'3 5.3
2018-Jun-17 04:01N 29°59' W 093°12'3 5.9
2018-Jun-17 03:30N 29°57' W 093°10'3 5.9
2018-Jun-17 03:00N 29°56' W 093°07'3 6.1
2018-Jun-17 02:30N 29°56' W 093°03'33 6.2
2018-Jun-16 21:08N 29°53' W 092°25'2 6.2
2018-Jun-16 20:50N 29°52' W 092°23'2 5.9
2018-Jun-16 20:30N 29°51' W 092°21'3 6.3
2018-Jun-16 20:00N 29°50' W 092°18'3 6.0
2018-Jun-16 19:30N 29°48' W 092°15'2 3.3
2018-Jun-16 18:59N 29°47' W 092°13'1 1.9
2018-Jun-16 18:30N 29°47' W 092°12'2 3.2
2018-Jun-16 18:01N 29°47' W 092°10'3 5.5
2018-Jun-16 17:30N 29°47' W 092°07'3 6.1
2018-Jun-16 17:00N 29°48' W 092°04'3 6.3
2018-Jun-16 16:30N 29°50' W 092°01'58 5.2
2018-Jun-16 05:13N 29°34' W 090°56'2 6.7
2018-Jun-16 04:53N 29°33' W 090°54'2 6.3
2018-Jun-16 04:30N 29°32' W 090°51'4 6.7
2018-Jun-16 03:59N 29°32' W 090°47'3 5.6
2018-Jun-16 03:30N 29°34' W 090°45'2 3.7
2018-Jun-16 03:00N 29°35' W 090°43'0 0.0
2018-Jun-16 02:30N 29°35' W 090°43'0 0.0
2018-Jun-16 02:00N 29°35' W 090°43'2 4.7
2018-Jun-16 01:30N 29°33' W 090°45'3 6.1
2018-Jun-16 01:00N 29°32' W 090°48'1 2.0
2018-Jun-16 00:30N 29°32' W 090°47'3 5.1
2018-Jun-16 00:00N 29°34' W 090°45'2 4.3
2018-Jun-15 23:30N 29°33' W 090°42'1 1.3
2018-Jun-15 23:00N 29°33' W 090°42'0 0.0
2018-Jun-15 22:30N 29°33' W 090°42'0 0.0
2018-Jun-15 22:00N 29°33' W 090°42'0 0.0
2018-Jun-15 21:30N 29°33' W 090°42'0 0.0
2018-Jun-15 21:00N 29°33' W 090°42'0 0.0
2018-Jun-15 20:30N 29°33' W 090°42'0 0.0
2018-Jun-15 19:55N 29°33' W 090°42'0 0.0
2018-Jun-15 19:30N 29°33' W 090°42'0 0.0
2018-Jun-15 19:00N 29°33' W 090°42'0 0.0
2018-Jun-15 18:30N 29°33' W 090°42'0 0.0
2018-Jun-15 18:00N 29°33' W 090°42'0 0.0
2018-Jun-15 17:30N 29°33' W 090°42'0 0.0
2018-Jun-15 17:00N 29°33' W 090°42'0 0.0
2018-Jun-15 16:30N 29°33' W 090°42'0 0.0
2018-Jun-15 16:00N 29°33' W 090°42'0 0.0
2018-Jun-15 15:30N 29°33' W 090°42'0 0.0
2018-Jun-15 15:00N 29°33' W 090°42'0 0.0
2018-Jun-15 14:30N 29°33' W 090°42'0 0.0
2018-Jun-15 14:00N 29°33' W 090°42'0 0.0
2018-Jun-15 13:30N 29°33' W 090°42'0 0.0
2018-Jun-15 13:00N 29°33' W 090°42'0 0.0
2018-Jun-15 12:30N 29°33' W 090°42'  

Dump ship's entire track history